sensor_id;sensor_type;location;lat;lon;timestamp;P1;durP1;ratioP1;P2;durP2;ratioP2
47483;SDS011;54076;50.322;18.650;2022-12-07T00:00:40;23.20;;;10.20;;
47483;SDS011;54076;50.322;18.650;2022-12-07T00:05:41;25.50;;;10.90;;
47483;SDS011;54076;50.322;18.650;2022-12-07T00:10:42;22.60;;;9.50;;
47483;SDS011;54076;50.322;18.650;2022-12-07T00:15:44;26.50;;;10.50;;
47483;SDS011;54076;50.322;18.650;2022-12-07T00:20:45;21.20;;;9.40;;
47483;SDS011;54076;50.322;18.650;2022-12-07T00:25:46;20.70;;;9.90;;
47483;SDS011;54076;50.322;18.650;2022-12-07T00:30:49;21.10;;;10.00;;
47483;SDS011;54076;50.322;18.650;2022-12-07T00:35:56;24.50;;;10.60;;
47483;SDS011;54076;50.322;18.650;2022-12-07T00:41:01;27.70;;;10.90;;
47483;SDS011;54076;50.322;18.650;2022-12-07T00:46:07;26.60;;;10.90;;
47483;SDS011;54076;50.322;18.650;2022-12-07T00:51:10;21.70;;;8.70;;
47483;SDS011;54076;50.322;18.650;2022-12-07T00:56:18;22.90;;;9.40;;
47483;SDS011;54076;50.322;18.650;2022-12-07T01:01:31;27.50;;;11.50;;
47483;SDS011;54076;50.322;18.650;2022-12-07T01:06:34;25.50;;;11.20;;
47483;SDS011;54076;50.322;18.650;2022-12-07T01:11:35;21.20;;;9.60;;
47483;SDS011;54076;50.322;18.650;2022-12-07T01:16:38;22.30;;;9.30;;
47483;SDS011;54076;50.322;18.650;2022-12-07T01:21:39;24.50;;;9.80;;
47483;SDS011;54076;50.322;18.650;2022-12-07T01:26:40;24.20;;;9.60;;
47483;SDS011;54076;50.322;18.650;2022-12-07T01:31:41;19.50;;;8.90;;
47483;SDS011;54076;50.322;18.650;2022-12-07T01:36:42;20.10;;;9.10;;
47483;SDS011;54076;50.322;18.650;2022-12-07T01:41:43;24.00;;;10.40;;
47483;SDS011;54076;50.322;18.650;2022-12-07T01:46:49;22.30;;;9.90;;
47483;SDS011;54076;50.322;18.650;2022-12-07T01:51:54;21.60;;;9.30;;
47483;SDS011;54076;50.322;18.650;2022-12-07T01:57:11;20.80;;;9.90;;
47483;SDS011;54076;50.322;18.650;2022-12-07T02:02:25;24.40;;;9.20;;
47483;SDS011;54076;50.322;18.650;2022-12-07T02:07:33;22.60;;;9.60;;
47483;SDS011;54076;50.322;18.650;2022-12-07T02:12:36;23.30;;;9.60;;
47483;SDS011;54076;50.322;18.650;2022-12-07T02:23:33;21.40;;;9.10;;
47483;SDS011;54076;50.322;18.650;2022-12-07T02:34:08;20.10;;;8.70;;
47483;SDS011;54076;50.322;18.650;2022-12-07T02:39:19;17.50;;;8.40;;
47483;SDS011;54076;50.322;18.650;2022-12-07T02:44:26;20.20;;;8.40;;
47483;SDS011;54076;50.322;18.650;2022-12-07T02:49:29;19.10;;;8.80;;
47483;SDS011;54076;50.322;18.650;2022-12-07T02:54:31;18.30;;;8.90;;
47483;SDS011;54076;50.322;18.650;2022-12-07T03:11:08;23.50;;;10.60;;
47483;SDS011;54076;50.322;18.650;2022-12-07T03:21:27;25.40;;;9.60;;
47483;SDS011;54076;50.322;18.650;2022-12-07T03:26:47;24.60;;;9.30;;
47483;SDS011;54076;50.322;18.650;2022-12-07T03:31:57;26.90;;;9.80;;
47483;SDS011;54076;50.322;18.650;2022-12-07T03:37:08;24.60;;;8.90;;
47483;SDS011;54076;50.322;18.650;2022-12-07T03:42:18;22.40;;;9.20;;
47483;SDS011;54076;50.322;18.650;2022-12-07T03:47:32;28.00;;;9.50;;
47483;SDS011;54076;50.322;18.650;2022-12-07T03:53:00;26.20;;;9.70;;
47483;SDS011;54076;50.322;18.650;2022-12-07T03:58:12;27.00;;;10.00;;
47483;SDS011;54076;50.322;18.650;2022-12-07T04:03:16;28.20;;;10.20;;
47483;SDS011;54076;50.322;18.650;2022-12-07T04:08:17;23.20;;;9.30;;
47483;SDS011;54076;50.322;18.650;2022-12-07T04:13:18;24.70;;;9.30;;
47483;SDS011;54076;50.322;18.650;2022-12-07T04:18:19;26.70;;;9.30;;
47483;SDS011;54076;50.322;18.650;2022-12-07T04:23:20;27.40;;;10.70;;
47483;SDS011;54076;50.322;18.650;2022-12-07T04:28:21;25.60;;;9.80;;
47483;SDS011;54076;50.322;18.650;2022-12-07T04:33:22;25.20;;;9.70;;
47483;SDS011;54076;50.322;18.650;2022-12-07T04:38:23;27.80;;;9.60;;
47483;SDS011;54076;50.322;18.650;2022-12-07T04:43:24;24.10;;;9.30;;
47483;SDS011;54076;50.322;18.650;2022-12-07T04:48:25;22.00;;;9.40;;
47483;SDS011;54076;50.322;18.650;2022-12-07T04:53:26;20.80;;;8.10;;
47483;SDS011;54076;50.322;18.650;2022-12-07T04:58:27;20.40;;;7.90;;
47483;SDS011;54076;50.322;18.650;2022-12-07T05:03:28;21.00;;;8.60;;
47483;SDS011;54076;50.322;18.650;2022-12-07T05:08:29;16.60;;;7.50;;
47483;SDS011;54076;50.322;18.650;2022-12-07T05:13:31;14.70;;;7.20;;
47483;SDS011;54076;50.322;18.650;2022-12-07T05:18:33;13.90;;;6.50;;
47483;SDS011;54076;50.322;18.650;2022-12-07T05:23:34;14.20;;;6.10;;
47483;SDS011;54076;50.322;18.650;2022-12-07T05:28:35;13.10;;;5.70;;
47483;SDS011;54076;50.322;18.650;2022-12-07T05:33:36;15.40;;;6.60;;
47483;SDS011;54076;50.322;18.650;2022-12-07T05:38:37;17.80;;;7.60;;
47483;SDS011;54076;50.322;18.650;2022-12-07T05:43:38;18.20;;;7.00;;
47483;SDS011;54076;50.322;18.650;2022-12-07T05:48:39;17.60;;;7.90;;
47483;SDS011;54076;50.322;18.650;2022-12-07T05:53:40;21.50;;;9.20;;
47483;SDS011;54076;50.322;18.650;2022-12-07T05:58:41;22.90;;;9.40;;
47483;SDS011;54076;50.322;18.650;2022-12-07T06:04:01;22.20;;;10.20;;
47483;SDS011;54076;50.322;18.650;2022-12-07T06:09:02;22.00;;;9.70;;
47483;SDS011;54076;50.322;18.650;2022-12-07T06:14:04;23.70;;;9.00;;
47483;SDS011;54076;50.322;18.650;2022-12-07T06:19:05;20.20;;;8.60;;
47483;SDS011;54076;50.322;18.650;2022-12-07T06:24:06;15.70;;;7.50;;
47483;SDS011;54076;50.322;18.650;2022-12-07T06:29:08;18.10;;;7.80;;
47483;SDS011;54076;50.322;18.650;2022-12-07T06:34:11;14.20;;;7.10;;
47483;SDS011;54076;50.322;18.650;2022-12-07T06:39:14;17.20;;;6.70;;
47483;SDS011;54076;50.322;18.650;2022-12-07T06:44:15;16.80;;;8.10;;
47483;SDS011;54076;50.322;18.650;2022-12-07T06:49:16;16.40;;;7.10;;
47483;SDS011;54076;50.322;18.650;2022-12-07T06:54:18;16.70;;;7.30;;
47483;SDS011;54076;50.322;18.650;2022-12-07T06:59:19;16.80;;;7.70;;
47483;SDS011;54076;50.322;18.650;2022-12-07T07:04:20;18.80;;;8.00;;
47483;SDS011;54076;50.322;18.650;2022-12-07T07:09:21;16.60;;;7.30;;
47483;SDS011;54076;50.322;18.650;2022-12-07T07:14:22;16.50;;;7.10;;
47483;SDS011;54076;50.322;18.650;2022-12-07T07:19:23;18.20;;;7.40;;
47483;SDS011;54076;50.322;18.650;2022-12-07T07:24:24;17.50;;;7.50;;
47483;SDS011;54076;50.322;18.650;2022-12-07T07:29:25;15.20;;;7.10;;
47483;SDS011;54076;50.322;18.650;2022-12-07T07:34:26;17.60;;;7.60;;
47483;SDS011;54076;50.322;18.650;2022-12-07T07:39:27;21.30;;;7.90;;
47483;SDS011;54076;50.322;18.650;2022-12-07T07:44:28;22.10;;;8.70;;
47483;SDS011;54076;50.322;18.650;2022-12-07T07:49:29;22.60;;;9.30;;
47483;SDS011;54076;50.322;18.650;2022-12-07T07:54:30;20.60;;;8.70;;
47483;SDS011;54076;50.322;18.650;2022-12-07T07:59:31;30.60;;;12.50;;
47483;SDS011;54076;50.322;18.650;2022-12-07T08:04:32;22.90;;;10.40;;
47483;SDS011;54076;50.322;18.650;2022-12-07T08:09:33;22.90;;;9.00;;
47483;SDS011;54076;50.322;18.650;2022-12-07T08:14:34;21.20;;;9.50;;
47483;SDS011;54076;50.322;18.650;2022-12-07T08:19:35;22.40;;;9.20;;
47483;SDS011;54076;50.322;18.650;2022-12-07T08:24:36;19.20;;;9.10;;
47483;SDS011;54076;50.322;18.650;2022-12-07T08:29:37;17.20;;;7.80;;
47483;SDS011;54076;50.322;18.650;2022-12-07T08:34:38;16.10;;;7.20;;
47483;SDS011;54076;50.322;18.650;2022-12-07T08:39:39;15.40;;;7.10;;
47483;SDS011;54076;50.322;18.650;2022-12-07T08:44:40;15.90;;;7.50;;
47483;SDS011;54076;50.322;18.650;2022-12-07T08:49:43;13.10;;;6.10;;
47483;SDS011;54076;50.322;18.650;2022-12-07T08:54:48;12.20;;;6.10;;
47483;SDS011;54076;50.322;18.650;2022-12-07T08:59:49;14.40;;;6.60;;
47483;SDS011;54076;50.322;18.650;2022-12-07T09:04:50;17.70;;;6.40;;
47483;SDS011;54076;50.322;18.650;2022-12-07T09:09:51;15.10;;;6.90;;
47483;SDS011;54076;50.322;18.650;2022-12-07T09:14:52;14.30;;;6.50;;
47483;SDS011;54076;50.322;18.650;2022-12-07T09:19:53;12.70;;;5.70;;
47483;SDS011;54076;50.322;18.650;2022-12-07T09:24:54;22.80;;;10.10;;
47483;SDS011;54076;50.322;18.650;2022-12-07T09:29:55;17.90;;;7.90;;
47483;SDS011;54076;50.322;18.650;2022-12-07T09:34:56;17.50;;;8.30;;
47483;SDS011;54076;50.322;18.650;2022-12-07T09:39:57;20.00;;;8.50;;
47483;SDS011;54076;50.322;18.650;2022-12-07T09:44:58;23.10;;;9.20;;
47483;SDS011;54076;50.322;18.650;2022-12-07T09:50:05;21.90;;;9.80;;
47483;SDS011;54076;50.322;18.650;2022-12-07T09:55:33;19.40;;;9.10;;
47483;SDS011;54076;50.322;18.650;2022-12-07T10:00:36;21.60;;;9.20;;
47483;SDS011;54076;50.322;18.650;2022-12-07T10:05:43;21.50;;;10.40;;
47483;SDS011;54076;50.322;18.650;2022-12-07T10:10:50;26.70;;;10.30;;
47483;SDS011;54076;50.322;18.650;2022-12-07T10:15:55;23.60;;;10.40;;
47483;SDS011;54076;50.322;18.650;2022-12-07T10:26:36;27.00;;;11.20;;
47483;SDS011;54076;50.322;18.650;2022-12-07T10:31:42;23.20;;;10.40;;
47483;SDS011;54076;50.322;18.650;2022-12-07T10:36:44;23.60;;;10.70;;
47483;SDS011;54076;50.322;18.650;2022-12-07T10:42:00;21.80;;;9.40;;
47483;SDS011;54076;50.322;18.650;2022-12-07T10:52:52;20.00;;;8.20;;
47483;SDS011;54076;50.322;18.650;2022-12-07T10:58:33;17.40;;;8.30;;
47483;SDS011;54076;50.322;18.650;2022-12-07T11:31:02;15.40;;;7.60;;
47483;SDS011;54076;50.322;18.650;2022-12-07T11:36:37;19.00;;;7.90;;
47483;SDS011;54076;50.322;18.650;2022-12-07T11:41:44;17.40;;;7.40;;
47483;SDS011;54076;50.322;18.650;2022-12-07T11:46:51;13.80;;;6.70;;
47483;SDS011;54076;50.322;18.650;2022-12-07T11:52:06;16.40;;;8.30;;
47483;SDS011;54076;50.322;18.650;2022-12-07T11:57:41;12.70;;;6.50;;
47483;SDS011;54076;50.322;18.650;2022-12-07T12:03:04;12.30;;;6.00;;
47483;SDS011;54076;50.322;18.650;2022-12-07T12:08:18;12.90;;;6.20;;
47483;SDS011;54076;50.322;18.650;2022-12-07T12:24:33;12.90;;;5.20;;
47483;SDS011;54076;50.322;18.650;2022-12-07T12:29:39;12.40;;;6.00;;
47483;SDS011;54076;50.322;18.650;2022-12-07T12:45:24;12.40;;;6.10;;
47483;SDS011;54076;50.322;18.650;2022-12-07T12:50:33;10.90;;;5.40;;
47483;SDS011;54076;50.322;18.650;2022-12-07T13:00:44;9.60;;;5.70;;
47483;SDS011;54076;50.322;18.650;2022-12-07T13:06:39;9.00;;;4.90;;
47483;SDS011;54076;50.322;18.650;2022-12-07T13:11:43;12.10;;;5.70;;
47483;SDS011;54076;50.322;18.650;2022-12-07T13:16:46;11.10;;;5.30;;
47483;SDS011;54076;50.322;18.650;2022-12-07T13:21:47;12.20;;;5.70;;
47483;SDS011;54076;50.322;18.650;2022-12-07T13:26:48;9.70;;;5.50;;
47483;SDS011;54076;50.322;18.650;2022-12-07T13:36:56;10.50;;;5.60;;
47483;SDS011;54076;50.322;18.650;2022-12-07T13:41:59;9.60;;;5.40;;
47483;SDS011;54076;50.322;18.650;2022-12-07T13:47:09;10.70;;;5.90;;
47483;SDS011;54076;50.322;18.650;2022-12-07T13:52:28;10.40;;;5.50;;
47483;SDS011;54076;50.322;18.650;2022-12-07T13:57:32;10.80;;;5.70;;
47483;SDS011;54076;50.322;18.650;2022-12-07T14:02:35;10.30;;;4.70;;
47483;SDS011;54076;50.322;18.650;2022-12-07T14:07:57;9.60;;;5.00;;
47483;SDS011;54076;50.322;18.650;2022-12-07T14:13:29;12.50;;;5.50;;
47483;SDS011;54076;50.322;18.650;2022-12-07T14:18:39;13.40;;;5.60;;
47483;SDS011;54076;50.322;18.650;2022-12-07T14:33:39;13.30;;;6.60;;
47483;SDS011;54076;50.322;18.650;2022-12-07T14:38:41;12.80;;;6.00;;
47483;SDS011;54076;50.322;18.650;2022-12-07T14:43:42;14.40;;;6.20;;
47483;SDS011;54076;50.322;18.650;2022-12-07T14:48:43;18.70;;;7.20;;
47483;SDS011;54076;50.322;18.650;2022-12-07T14:53:46;13.60;;;6.70;;
47483;SDS011;54076;50.322;18.650;2022-12-07T14:58:51;13.50;;;5.80;;
47483;SDS011;54076;50.322;18.650;2022-12-07T15:03:52;11.60;;;5.40;;
47483;SDS011;54076;50.322;18.650;2022-12-07T15:08:53;10.30;;;4.90;;
47483;SDS011;54076;50.322;18.650;2022-12-07T15:13:55;11.60;;;5.60;;
47483;SDS011;54076;50.322;18.650;2022-12-07T15:19:13;10.00;;;5.50;;
47483;SDS011;54076;50.322;18.650;2022-12-07T15:24:17;12.60;;;6.00;;
47483;SDS011;54076;50.322;18.650;2022-12-07T15:29:18;14.20;;;6.70;;
47483;SDS011;54076;50.322;18.650;2022-12-07T15:34:19;12.00;;;5.90;;
47483;SDS011;54076;50.322;18.650;2022-12-07T15:39:20;14.60;;;7.30;;
47483;SDS011;54076;50.322;18.650;2022-12-07T15:44:22;12.80;;;6.70;;
47483;SDS011;54076;50.322;18.650;2022-12-07T15:49:42;11.10;;;5.50;;
47483;SDS011;54076;50.322;18.650;2022-12-07T15:54:43;13.40;;;6.80;;
47483;SDS011;54076;50.322;18.650;2022-12-07T15:59:44;16.20;;;7.20;;
47483;SDS011;54076;50.322;18.650;2022-12-07T16:04:45;14.00;;;6.60;;
47483;SDS011;54076;50.322;18.650;2022-12-07T16:09:47;15.40;;;7.60;;
47483;SDS011;54076;50.322;18.650;2022-12-07T16:14:48;16.50;;;7.80;;
47483;SDS011;54076;50.322;18.650;2022-12-07T16:19:52;22.40;;;7.70;;
47483;SDS011;54076;50.322;18.650;2022-12-07T16:24:54;14.30;;;6.50;;
47483;SDS011;54076;50.322;18.650;2022-12-07T16:29:55;16.40;;;7.20;;
47483;SDS011;54076;50.322;18.650;2022-12-07T16:34:56;18.50;;;7.80;;
47483;SDS011;54076;50.322;18.650;2022-12-07T16:39:57;20.70;;;8.20;;
47483;SDS011;54076;50.322;18.650;2022-12-07T16:44:58;18.10;;;8.60;;
47483;SDS011;54076;50.322;18.650;2022-12-07T16:49:59;21.70;;;8.50;;
47483;SDS011;54076;50.322;18.650;2022-12-07T16:55:00;20.90;;;8.80;;
47483;SDS011;54076;50.322;18.650;2022-12-07T17:00:01;16.70;;;7.90;;
47483;SDS011;54076;50.322;18.650;2022-12-07T17:05:04;21.60;;;8.70;;
47483;SDS011;54076;50.322;18.650;2022-12-07T17:10:06;23.30;;;8.70;;
47483;SDS011;54076;50.322;18.650;2022-12-07T17:15:08;20.50;;;8.40;;
47483;SDS011;54076;50.322;18.650;2022-12-07T17:20:24;20.90;;;9.70;;
47483;SDS011;54076;50.322;18.650;2022-12-07T17:25:27;20.70;;;9.40;;
47483;SDS011;54076;50.322;18.650;2022-12-07T17:30:28;21.40;;;8.60;;
47483;SDS011;54076;50.322;18.650;2022-12-07T17:35:29;17.50;;;8.20;;
47483;SDS011;54076;50.322;18.650;2022-12-07T17:40:30;20.70;;;8.50;;
47483;SDS011;54076;50.322;18.650;2022-12-07T17:45:31;18.00;;;8.50;;
47483;SDS011;54076;50.322;18.650;2022-12-07T17:50:32;21.60;;;9.70;;
47483;SDS011;54076;50.322;18.650;2022-12-07T17:55:52;17.80;;;8.30;;
47483;SDS011;54076;50.322;18.650;2022-12-07T18:00:54;16.70;;;8.30;;
47483;SDS011;54076;50.322;18.650;2022-12-07T18:05:55;20.50;;;8.30;;
47483;SDS011;54076;50.322;18.650;2022-12-07T18:10:59;22.80;;;8.90;;
47483;SDS011;54076;50.322;18.650;2022-12-07T18:16:02;19.40;;;8.20;;
47483;SDS011;54076;50.322;18.650;2022-12-07T18:21:13;20.20;;;8.50;;
47483;SDS011;54076;50.322;18.650;2022-12-07T18:26:16;18.90;;;8.90;;
47483;SDS011;54076;50.322;18.650;2022-12-07T18:31:18;22.20;;;9.20;;
47483;SDS011;54076;50.322;18.650;2022-12-07T18:36:20;24.60;;;9.50;;
47483;SDS011;54076;50.322;18.650;2022-12-07T18:41:22;25.40;;;10.50;;
47483;SDS011;54076;50.322;18.650;2022-12-07T18:46:23;25.90;;;10.60;;
47483;SDS011;54076;50.322;18.650;2022-12-07T18:51:25;20.60;;;9.40;;
47483;SDS011;54076;50.322;18.650;2022-12-07T18:56:28;27.40;;;10.60;;
47483;SDS011;54076;50.322;18.650;2022-12-07T19:01:29;22.60;;;10.70;;
47483;SDS011;54076;50.322;18.650;2022-12-07T19:06:31;25.20;;;10.90;;
47483;SDS011;54076;50.322;18.650;2022-12-07T19:11:33;28.40;;;11.20;;
47483;SDS011;54076;50.322;18.650;2022-12-07T19:16:51;26.80;;;11.70;;
47483;SDS011;54076;50.322;18.650;2022-12-07T19:21:54;23.20;;;10.20;;
47483;SDS011;54076;50.322;18.650;2022-12-07T19:26:55;21.20;;;9.60;;
47483;SDS011;54076;50.322;18.650;2022-12-07T19:31:58;15.80;;;7.40;;
47483;SDS011;54076;50.322;18.650;2022-12-07T19:37:00;18.10;;;7.80;;
47483;SDS011;54076;50.322;18.650;2022-12-07T19:42:02;14.20;;;7.00;;
47483;SDS011;54076;50.322;18.650;2022-12-07T19:47:04;18.60;;;7.70;;
47483;SDS011;54076;50.322;18.650;2022-12-07T19:52:06;17.10;;;7.60;;
47483;SDS011;54076;50.322;18.650;2022-12-07T19:57:07;21.30;;;9.00;;
47483;SDS011;54076;50.322;18.650;2022-12-07T20:02:15;25.20;;;10.40;;
47483;SDS011;54076;50.322;18.650;2022-12-07T20:07:16;25.50;;;10.00;;
47483;SDS011;54076;50.322;18.650;2022-12-07T20:12:17;25.00;;;10.70;;
47483;SDS011;54076;50.322;18.650;2022-12-07T20:17:37;18.40;;;8.50;;
47483;SDS011;54076;50.322;18.650;2022-12-07T20:22:38;17.40;;;8.70;;
47483;SDS011;54076;50.322;18.650;2022-12-07T20:27:39;19.10;;;8.30;;
47483;SDS011;54076;50.322;18.650;2022-12-07T20:32:40;18.30;;;7.90;;
47483;SDS011;54076;50.322;18.650;2022-12-07T20:37:41;18.30;;;8.50;;
47483;SDS011;54076;50.322;18.650;2022-12-07T20:42:42;17.50;;;8.20;;
47483;SDS011;54076;50.322;18.650;2022-12-07T20:47:43;17.10;;;8.20;;
47483;SDS011;54076;50.322;18.650;2022-12-07T20:52:44;17.20;;;7.30;;
47483;SDS011;54076;50.322;18.650;2022-12-07T20:57:45;15.20;;;7.00;;
47483;SDS011;54076;50.322;18.650;2022-12-07T21:02:46;14.50;;;7.30;;
47483;SDS011;54076;50.322;18.650;2022-12-07T21:07:47;13.90;;;7.00;;
47483;SDS011;54076;50.322;18.650;2022-12-07T21:12:48;14.90;;;7.60;;
47483;SDS011;54076;50.322;18.650;2022-12-07T21:17:49;18.30;;;8.70;;
47483;SDS011;54076;50.322;18.650;2022-12-07T21:22:50;19.20;;;8.90;;
47483;SDS011;54076;50.322;18.650;2022-12-07T21:27:51;17.30;;;8.70;;
47483;SDS011;54076;50.322;18.650;2022-12-07T21:32:52;18.50;;;9.20;;
47483;SDS011;54076;50.322;18.650;2022-12-07T21:37:53;27.10;;;9.50;;
47483;SDS011;54076;50.322;18.650;2022-12-07T21:42:54;23.70;;;10.30;;
47483;SDS011;54076;50.322;18.650;2022-12-07T21:47:55;25.00;;;11.50;;
47483;SDS011;54076;50.322;18.650;2022-12-07T21:52:57;27.50;;;11.10;;
47483;SDS011;54076;50.322;18.650;2022-12-07T21:57:58;30.00;;;12.80;;
47483;SDS011;54076;50.322;18.650;2022-12-07T22:02:59;29.00;;;11.50;;
47483;SDS011;54076;50.322;18.650;2022-12-07T22:08:02;24.60;;;10.40;;
47483;SDS011;54076;50.322;18.650;2022-12-07T22:13:04;18.20;;;8.40;;
47483;SDS011;54076;50.322;18.650;2022-12-07T22:18:04;20.30;;;8.70;;
47483;SDS011;54076;50.322;18.650;2022-12-07T22:23:06;20.70;;;9.50;;
47483;SDS011;54076;50.322;18.650;2022-12-07T22:28:07;19.30;;;8.90;;
47483;SDS011;54076;50.322;18.650;2022-12-07T22:33:07;20.20;;;8.50;;
47483;SDS011;54076;50.322;18.650;2022-12-07T22:38:08;21.50;;;9.10;;
47483;SDS011;54076;50.322;18.650;2022-12-07T22:43:09;22.20;;;9.70;;
47483;SDS011;54076;50.322;18.650;2022-12-07T22:48:11;18.70;;;9.00;;
47483;SDS011;54076;50.322;18.650;2022-12-07T22:53:11;19.20;;;8.20;;
47483;SDS011;54076;50.322;18.650;2022-12-07T22:58:13;22.50;;;8.70;;
47483;SDS011;54076;50.322;18.650;2022-12-07T23:03:14;18.90;;;8.60;;
47483;SDS011;54076;50.322;18.650;2022-12-07T23:08:15;18.70;;;8.60;;
47483;SDS011;54076;50.322;18.650;2022-12-07T23:13:17;19.70;;;8.60;;
47483;SDS011;54076;50.322;18.650;2022-12-07T23:18:35;22.50;;;9.50;;
47483;SDS011;54076;50.322;18.650;2022-12-07T23:23:37;18.60;;;7.70;;
47483;SDS011;54076;50.322;18.650;2022-12-07T23:28:38;21.70;;;8.60;;
47483;SDS011;54076;50.322;18.650;2022-12-07T23:33:41;21.80;;;8.20;;
47483;SDS011;54076;50.322;18.650;2022-12-07T23:38:44;19.20;;;8.70;;
47483;SDS011;54076;50.322;18.650;2022-12-07T23:43:46;20.20;;;7.80;;
47483;SDS011;54076;50.322;18.650;2022-12-07T23:48:49;19.30;;;8.10;;
47483;SDS011;54076;50.322;18.650;2022-12-07T23:53:52;17.60;;;7.80;;
47483;SDS011;54076;50.322;18.650;2022-12-07T23:58:54;16.30;;;8.20;;
